Time;durP1;ratioP1;P1;durP2;ratioP2;P2;SDS_P1;SDS_P2;PMS_P1;PMS_P2;Temp;Humidity;BMP_temperature;BMP_pressure;BME280_temperature;BME280_humidity;BME280_pressure;Samples;Min_cycle;Max_cycle;Signal;HPM_P1;HPM_P2
2023/12/05 00:01:29;;;;;;;35.73;18.17;;;;;;;-144.73;100.00;54639.63;4984304;28;20038;-73
2023/12/05 00:03:54;;;;;;;37.37;17.47;;;;;;;-144.73;100.00;54649.91;4989554;28;20033;-72
2023/12/05 00:06:19;;;;;;;31.97;15.93;;;;;;;-144.73;100.00;54686.84;4972778;28;20030;-73
2023/12/05 00:08:45;;;;;;;41.67;18.43;;;;;;;-144.73;100.00;54727.91;4973292;28;20032;-73
2023/12/05 00:11:10;;;;;;;35.90;17.73;;;;;;;-144.73;100.00;54625.28;4972633;28;20063;-72
2023/12/05 00:13:35;;;;;;;35.00;16.80;;;;;;;-144.73;100.00;54635.53;4973072;28;20037;-71
2023/12/05 00:16:04;;;;;;;35.03;17.57;;;;;;;-144.73;100.00;54703.28;4972329;28;20062;-73
2023/12/05 00:18:29;;;;;;;36.53;16.47;;;;;;;-144.73;100.00;54654.00;4973067;28;20035;-72
2023/12/05 00:20:54;;;;;;;36.73;18.93;;;;;;;-144.73;100.00;54690.97;4973641;28;20173;-72
2023/12/05 00:23:20;;;;;;;36.37;17.87;;;;;;;-144.73;100.00;54662.22;4973646;28;20098;-72
2023/12/05 00:25:46;;;;;;;36.57;18.50;;;;;;;-144.73;100.00;54662.22;4989382;28;20038;-72
2023/12/05 00:28:11;;;;;;;35.13;17.93;;;;;;;-144.73;100.00;54658.13;4992291;28;20026;-73
2023/12/05 00:30:36;;;;;;;40.33;18.30;;;;;;;-144.73;100.00;54678.63;4992114;28;20022;-73
2023/12/05 00:33:02;;;;;;;37.87;17.50;;;;;;;-144.73;100.00;54682.75;4992067;28;20026;-73
2023/12/05 00:35:27;;;;;;;43.37;19.13;;;;;;;-144.73;100.00;54690.97;4990916;28;20544;-73
2023/12/05 00:37:52;;;;;;;35.97;17.57;;;;;;;-144.73;100.00;54678.63;4992515;28;20023;-73
2023/12/05 00:40:18;;;;;;;38.83;17.40;;;;;;;-144.73;100.00;54690.97;4991811;28;20030;-73
2023/12/05 00:42:43;;;;;;;36.30;17.50;;;;;;;-144.73;100.00;54633.47;4992028;28;20046;-73
2023/12/05 00:45:12;;;;;;;35.10;17.73;;;;;;;-144.73;100.00;54678.63;4992416;28;20034;-73
2023/12/05 00:47:37;;;;;;;39.47;18.60;;;;;;;-144.73;100.00;54678.63;4991981;28;20034;-73
2023/12/05 00:50:03;;;;;;;37.27;18.03;;;;;;;-144.73;100.00;54707.38;4989987;28;20029;-74
2023/12/05 00:52:29;;;;;;;34.50;17.43;;;;;;;-144.73;100.00;54658.13;4985178;28;20035;-78
2023/12/05 00:54:54;;;;;;;34.27;16.53;;;;;;;-144.73;100.00;54693.00;4984787;28;20023;-78
2023/12/05 00:57:20;;;;;;;33.53;17.07;;;;;;;-144.73;100.00;54717.66;4984150;28;20470;-78
2023/12/05 00:59:45;;;;;;;38.20;17.93;;;;;;;-144.73;100.00;54701.22;4980672;28;20065;-78
2023/12/05 01:02:10;;;;;;;38.03;17.77;;;;;;;-144.73;100.00;54670.44;4984605;28;20035;-78
2023/12/05 01:04:36;;;;;;;35.83;17.53;;;;;;;-144.73;100.00;54670.44;4981906;28;20026;-79
2023/12/05 01:07:02;;;;;;;39.67;19.17;;;;;;;-144.73;100.00;54651.97;4977694;28;20039;-77
2023/12/05 01:09:28;;;;;;;39.03;18.10;;;;;;;-144.73;100.00;54690.97;4984938;28;20022;-77
2023/12/05 01:11:53;;;;;;;39.00;18.33;;;;;;;-144.73;100.00;54637.59;4982362;28;20030;-77
2023/12/05 01:14:19;;;;;;;32.83;16.50;;;;;;;-144.73;100.00;54639.63;4981988;28;20401;-77
2023/12/05 01:16:45;;;;;;;32.60;17.03;;;;;;;-144.73;100.00;54654.00;4988665;28;20101;-77
2023/12/05 01:19:11;;;;;;;36.60;17.27;;;;;;;-144.73;100.00;54699.16;4983432;28;20041;-77
2023/12/05 01:21:36;;;;;;;35.00;17.50;;;;;;;-144.73;100.00;54658.13;4972900;28;20062;-77
2023/12/05 01:24:01;;;;;;;36.33;18.87;;;;;;;-144.73;100.00;54670.44;4975058;28;20031;-77
2023/12/05 01:26:27;;;;;;;35.27;18.23;;;;;;;-144.73;100.00;54703.28;4975109;28;20034;-77
2023/12/05 01:28:52;;;;;;;33.80;16.23;;;;;;;-144.73;100.00;54670.44;4982724;28;20050;-78
2023/12/05 01:31:17;;;;;;;36.23;18.07;;;;;;;-144.73;100.00;54654.00;4973326;28;20054;-77
2023/12/05 01:33:43;;;;;;;35.73;18.27;;;;;;;-144.73;100.00;54660.16;4986569;28;20046;-77
2023/12/05 01:36:10;;;;;;;37.07;18.20;;;;;;;-144.73;100.00;54686.84;4977751;28;20042;-77
2023/12/05 01:38:35;;;;;;;33.90;17.97;;;;;;;-144.73;100.00;54649.91;4977878;28;20027;-77
2023/12/05 01:41:01;;;;;;;35.57;16.73;;;;;;;-144.73;100.00;54670.44;4984152;28;20505;-77
2023/12/05 01:43:26;;;;;;;38.67;18.80;;;;;;;-144.73;100.00;54705.31;4978803;28;20022;-77
2023/12/05 01:45:53;;;;;;;39.33;18.27;;;;;;;-144.73;100.00;54656.06;4985066;28;20113;-77
2023/12/05 01:48:20;;;;;;;37.93;19.37;;;;;;;-144.73;100.00;54649.91;4987183;28;20018;-77
2023/12/05 01:50:46;;;;;;;34.00;17.13;;;;;;;-144.73;100.00;54695.06;4985179;28;20085;-77
2023/12/05 01:53:15;;;;;;;31.87;16.23;;;;;;;-144.73;100.00;54715.59;4983718;28;20030;-77
2023/12/05 01:55:42;;;;;;;36.90;18.13;;;;;;;-144.73;100.00;54678.63;4985157;28;20089;-77
2023/12/05 01:58:08;;;;;;;37.97;17.30;;;;;;;-144.73;100.00;54633.47;4981389;28;20023;-77
2023/12/05 02:00:34;;;;;;;39.03;18.77;;;;;;;-144.73;100.00;54645.78;4989559;28;20054;-78
2023/12/05 02:02:59;;;;;;;40.20;18.87;;;;;;;-144.73;100.00;54727.91;4983061;28;20030;-77
2023/12/05 02:05:26;;;;;;;36.50;18.83;;;;;;;-144.73;100.00;54641.69;4979672;28;20027;-77
2023/12/05 02:07:52;;;;;;;39.23;19.53;;;;;;;-144.73;100.00;54715.59;4983578;28;20057;-77
2023/12/05 02:10:17;;;;;;;36.30;19.20;;;;;;;-144.73;100.00;54674.53;4990322;28;20031;-77
2023/12/05 02:12:43;;;;;;;36.43;17.60;;;;;;;-144.73;100.00;54670.44;4976215;28;20038;-77
2023/12/05 02:15:09;;;;;;;36.90;18.33;;;;;;;-144.73;100.00;54641.69;4985522;28;20026;-78
2023/12/05 02:17:50;;;;;;;35.57;18.63;;;;;;;-144.73;100.00;54703.28;4982767;28;20139;-77
2023/12/05 02:20:22;;;;;;;38.00;19.83;;;;;;;-144.73;100.00;54674.53;4991958;28;20018;-77
2023/12/05 02:23:22;;;;;;;40.63;20.23;;;;;;;-144.73;100.00;54711.47;4986558;28;20042;-77
2023/12/05 02:25:56;;;;;;;40.23;19.03;;;;;;;-144.73;100.00;54662.22;5003259;28;20031;-77
2023/12/05 02:28:23;;;;;;;36.10;17.63;;;;;;;-144.73;100.00;54649.91;4990303;28;20121;-77
2023/12/05 02:30:48;;;;;;;37.30;18.77;;;;;;;-144.73;100.00;54688.91;4990459;28;20030;-78
2023/12/05 02:33:14;;;;;;;42.73;21.17;;;;;;;-144.73;100.00;54690.97;4983446;28;20030;-77
2023/12/05 02:35:39;;;;;;;43.00;18.70;;;;;;;-144.73;100.00;54703.28;4983046;28;20022;-77
2023/12/05 02:38:18;;;;;;;40.93;20.03;;;;;;;-144.73;100.00;54670.44;4987503;28;20023;-77
2023/12/05 02:41:19;;;;;;;36.43;18.93;;;;;;;-144.73;100.00;54649.91;4985962;28;20038;-77
2023/12/05 02:43:53;;;;;;;46.00;20.37;;;;;;;-144.73;100.00;54649.91;4974450;28;20033;-77
2023/12/05 02:46:19;;;;;;;38.70;18.97;;;;;;;-144.73;100.00;54674.53;5001402;28;20081;-77
2023/12/05 02:48:45;;;;;;;41.33;20.27;;;;;;;-144.73;100.00;54711.47;4982493;28;20019;-77
2023/12/05 02:51:11;;;;;;;48.50;22.07;;;;;;;-144.73;100.00;54686.84;4986436;28;20034;-77
2023/12/05 02:53:37;;;;;;;38.90;19.03;;;;;;;-144.73;100.00;54670.44;4982042;28;20019;-75
2023/12/05 02:56:03;;;;;;;43.47;20.20;;;;;;;-144.73;100.00;54674.53;4979727;28;20065;-78
2023/12/05 02:58:28;;;;;;;42.10;20.13;;;;;;;-144.73;100.00;54670.44;4977446;28;20341;-77
2023/12/05 03:00:54;;;;;;;43.80;20.83;;;;;;;-144.73;100.00;54670.44;4984624;28;20035;-77
2023/12/05 03:03:19;;;;;;;42.93;21.33;;;;;;;-144.73;100.00;54670.44;4990972;28;20029;-75
2023/12/05 03:05:45;;;;;;;43.27;21.73;;;;;;;-144.73;100.00;54633.47;4982004;28;20030;-75
2023/12/05 03:08:10;;;;;;;43.13;22.30;;;;;;;-144.73;100.00;54690.97;4976092;28;20026;-75
2023/12/05 03:10:35;;;;;;;43.93;20.97;;;;;;;-144.73;100.00;54682.75;4976741;28;20118;-75
2023/12/05 03:13:00;;;;;;;45.93;22.03;;;;;;;-144.73;100.00;54625.28;4977129;28;20018;-74
2023/12/05 03:15:26;;;;;;;46.60;23.23;;;;;;;-144.73;100.00;54645.78;4975955;28;20021;-75
2023/12/05 03:17:51;;;;;;;48.23;21.40;;;;;;;-144.73;100.00;54690.97;4973802;28;20026;-77
2023/12/05 03:20:16;;;;;;;43.73;21.53;;;;;;;-144.73;100.00;54690.97;4979987;28;20109;-72
2023/12/05 03:22:42;;;;;;;48.80;24.73;;;;;;;-144.73;100.00;54662.22;4992821;28;20080;-71
2023/12/05 03:25:07;;;;;;;46.10;25.03;;;;;;;-144.73;100.00;54682.75;4993105;28;20019;-72
2023/12/05 03:27:33;;;;;;;50.87;24.33;;;;;;;-144.73;100.00;54633.47;4992308;28;20034;-73
2023/12/05 03:29:58;;;;;;;56.07;25.27;;;;;;;-144.73;100.00;54690.97;4993912;28;20085;-73
2023/12/05 03:32:23;;;;;;;52.07;24.73;;;;;;;-144.73;100.00;54684.78;4992480;28;20038;-73
2023/12/05 03:34:49;;;;;;;50.87;24.33;;;;;;;-144.73;100.00;54690.97;4993121;28;20113;-74
2023/12/05 03:37:14;;;;;;;54.77;25.87;;;;;;;-144.73;100.00;54711.47;4988241;28;20038;-74
2023/12/05 03:39:40;;;;;;;55.83;26.20;;;;;;;-144.73;100.00;54686.84;4991850;28;20026;-74
2023/12/05 03:42:05;;;;;;;61.00;26.53;;;;;;;-144.73;100.00;54658.13;4979182;28;20030;-73
2023/12/05 03:44:30;;;;;;;60.30;26.90;;;;;;;-144.73;100.00;54674.53;4984667;28;20019;-74
2023/12/05 03:46:56;;;;;;;61.67;26.43;;;;;;;-144.73;100.00;54662.22;4979295;28;20082;-78
2023/12/05 03:49:21;;;;;;;55.00;25.10;;;;;;;-144.73;100.00;54690.97;4978783;28;20022;-73
2023/12/05 03:51:46;;;;;;;57.30;28.77;;;;;;;-144.73;100.00;54697.13;4979571;28;20506;-73
2023/12/05 03:54:12;;;;;;;56.27;27.30;;;;;;;-144.73;100.00;54695.06;4990366;28;20044;-74
2023/12/05 03:56:37;;;;;;;58.40;25.67;;;;;;;-144.73;100.00;54686.84;4987489;28;20042;-75
2023/12/05 03:59:02;;;;;;;55.20;26.80;;;;;;;-144.73;100.00;54654.00;4973707;28;20030;-74
2023/12/05 04:01:28;;;;;;;63.60;26.97;;;;;;;-144.73;100.00;54690.97;4976828;28;20039;-74
2023/12/05 04:03:53;;;;;;;58.10;27.63;;;;;;;-144.73;100.00;54658.13;4985647;28;20393;-74
2023/12/05 04:06:20;;;;;;;63.57;27.00;;;;;;;-144.73;100.00;54682.75;4976537;28;20066;-74
2023/12/05 04:08:45;;;;;;;57.37;25.97;;;;;;;-144.73;100.00;54719.69;4979203;28;20442;-74
2023/12/05 04:11:11;;;;;;;61.10;27.97;;;;;;;-144.73;100.00;54645.78;4981388;28;20042;-74
2023/12/05 04:13:36;;;;;;;62.63;27.37;;;;;;;-144.73;100.00;54695.06;4983685;28;20044;-74
2023/12/05 04:16:02;;;;;;;62.73;28.10;;;;;;;-144.73;100.00;54627.31;4978264;28;20173;-74
2023/12/05 04:18:28;;;;;;;64.43;30.13;;;;;;;-144.73;100.00;54686.84;4976396;28;20030;-74
2023/12/05 04:20:53;;;;;;;62.97;29.07;;;;;;;-144.73;100.00;54678.63;4978878;28;20053;-73
2023/12/05 04:23:18;;;;;;;59.13;25.93;;;;;;;-144.73;100.00;54703.28;4980497;28;20030;-74
2023/12/05 04:25:44;;;;;;;56.30;27.10;;;;;;;-144.73;100.00;54699.16;4974409;28;20039;-73
2023/12/05 04:28:09;;;;;;;62.90;27.43;;;;;;;-144.73;100.00;54619.13;4988578;28;20026;-73
2023/12/05 04:30:35;;;;;;;58.57;27.30;;;;;;;-144.73;100.00;54649.91;4982763;28;20023;-73
2023/12/05 04:33:00;;;;;;;65.13;29.60;;;;;;;-144.73;100.00;54658.13;4987200;28;20041;-73
2023/12/05 04:35:26;;;;;;;67.37;28.83;;;;;;;-144.73;100.00;54637.59;4986629;28;20022;-74
2023/12/05 04:37:51;;;;;;;72.77;32.37;;;;;;;-144.73;100.00;54699.16;4987543;28;20030;-74
2023/12/05 04:40:19;;;;;;;78.83;33.73;;;;;;;-144.73;100.00;54678.63;4987423;28;20478;-74
2023/12/05 04:42:44;;;;;;;84.87;38.23;;;;;;;-144.73;100.00;54723.81;4972350;28;20039;-73
2023/12/05 04:45:10;;;;;;;87.40;37.90;;;;;;;-144.73;100.00;54729.97;4973029;28;20037;-73
2023/12/05 04:47:35;;;;;;;98.23;40.90;;;;;;;-144.73;100.00;54658.13;4975394;28;20066;-77
2023/12/05 04:50:01;;;;;;;90.60;40.23;;;;;;;-144.73;100.00;54699.16;4987965;28;20034;-77
2023/12/05 04:52:26;;;;;;;93.07;39.37;;;;;;;-144.73;100.00;54682.75;4980505;28;20039;-77
2023/12/05 04:54:51;;;;;;;101.83;42.60;;;;;;;-144.73;100.00;54678.63;4981185;28;20019;-76
2023/12/05 04:57:17;;;;;;;100.60;42.60;;;;;;;-144.73;100.00;54686.84;4987730;28;20046;-77
2023/12/05 04:59:42;;;;;;;102.87;45.40;;;;;;;-144.73;100.00;54670.44;4983275;28;20026;-77
2023/12/05 05:02:11;;;;;;;91.47;40.77;;;;;;;-144.73;100.00;54678.63;4980087;28;20035;-76
2023/12/05 05:04:37;;;;;;;102.97;41.13;;;;;;;-144.73;100.00;54674.53;4977612;28;20019;-77
2023/12/05 05:07:05;;;;;;;102.77;44.27;;;;;;;-144.73;100.00;54682.75;4976232;28;20045;-76
2023/12/05 05:09:30;;;;;;;97.37;44.83;;;;;;;-144.73;100.00;54678.63;4980398;28;20031;-76
2023/12/05 05:11:56;;;;;;;108.37;41.93;;;;;;;-144.73;100.00;54719.69;4986358;28;20046;-76
2023/12/05 05:14:21;;;;;;;116.83;47.27;;;;;;;-144.73;100.00;54699.16;4976644;28;20120;-76
2023/12/05 05:16:47;;;;;;;108.30;43.27;;;;;;;-144.73;100.00;54678.63;4987056;28;20054;-77
2023/12/05 05:19:12;;;;;;;107.97;42.77;;;;;;;-144.73;100.00;54633.47;4982775;28;20031;-77
2023/12/05 05:21:38;;;;;;;104.43;44.90;;;;;;;-144.73;100.00;54686.84;4985675;28;20494;-77
2023/12/05 05:24:03;;;;;;;113.00;45.53;;;;;;;-144.73;100.00;54670.44;4986013;28;20027;-77
2023/12/05 05:26:29;;;;;;;110.10;44.20;;;;;;;-144.73;100.00;54736.13;4984395;28;20039;-79
2023/12/05 05:28:54;;;;;;;107.97;43.30;;;;;;;-144.73;100.00;54736.13;4982427;28;20031;-79
2023/12/05 05:31:22;;;;;;;98.53;43.33;;;;;;;-144.73;100.00;54658.13;4982970;28;20050;-79
2023/12/05 05:33:48;;;;;;;104.50;43.97;;;;;;;-144.73;100.00;54678.63;5001611;28;20085;-79
2023/12/05 05:36:14;;;;;;;95.10;40.77;;;;;;;-144.73;100.00;54674.53;5000719;28;20038;-79
2023/12/05 05:38:39;;;;;;;96.83;43.13;;;;;;;-144.73;100.00;54678.63;5001732;28;20034;-80
2023/12/05 05:41:09;;;;;;;104.10;44.43;;;;;;;-144.73;100.00;54695.06;4999351;28;20040;-75
2023/12/05 05:43:34;;;;;;;110.97;43.00;;;;;;;-144.73;100.00;54670.44;4991396;28;20022;-75
2023/12/05 05:46:02;;;;;;;99.07;42.80;;;;;;;-144.73;100.00;54682.75;4979568;28;20496;-75
2023/12/05 05:48:28;;;;;;;95.23;42.03;;;;;;;-144.73;100.00;54662.22;4987132;28;20022;-74
2023/12/05 05:50:56;;;;;;;99.33;43.73;;;;;;;-144.73;100.00;54633.47;4982432;28;20042;-75
2023/12/05 05:53:22;;;;;;;111.97;46.27;;;;;;;-144.73;100.00;54670.44;4985933;28;20486;-75
2023/12/05 05:55:47;;;;;;;112.70;47.50;;;;;;;-144.73;100.00;54678.63;4975009;28;20039;-76
2023/12/05 05:58:13;;;;;;;103.50;45.47;;;;;;;-144.73;100.00;54674.53;4983862;28;20035;-75
2023/12/05 06:00:38;;;;;;;107.63;50.10;;;;;;;-144.73;100.00;54690.97;4975578;28;20033;-75
2023/12/05 06:03:04;;;;;;;106.07;45.90;;;;;;;-144.73;100.00;54699.16;4991182;28;20026;-76
2023/12/05 06:05:30;;;;;;;112.03;46.20;;;;;;;-144.73;100.00;54686.84;4977473;28;20161;-75
2023/12/05 06:07:55;;;;;;;97.93;43.87;;;;;;;-144.73;100.00;54713.53;4975924;28;20105;-76
2023/12/05 06:10:21;;;;;;;112.07;47.10;;;;;;;-144.73;100.00;54678.63;4985931;28;20026;-77
2023/12/05 06:12:47;;;;;;;107.23;46.47;;;;;;;-144.73;100.00;54686.84;4983848;28;20035;-77
2023/12/05 06:15:12;;;;;;;99.97;41.93;;;;;;;-144.73;100.00;54674.53;4987140;28;20029;-77
2023/12/05 06:17:38;;;;;;;105.93;45.53;;;;;;;-144.73;100.00;54674.53;4979382;28;20125;-77
2023/12/05 06:20:05;;;;;;;101.27;42.87;;;;;;;-144.73;100.00;54688.91;4976625;28;20035;-77
2023/12/05 06:22:31;;;;;;;112.07;48.17;;;;;;;-144.73;100.00;54690.97;4979798;28;20112;-77
2023/12/05 06:24:56;;;;;;;105.53;46.53;;;;;;;-144.73;100.00;54649.91;4989493;28;20018;-77
2023/12/05 06:27:22;;;;;;;107.13;48.33;;;;;;;-144.73;100.00;54662.22;4979813;28;20050;-77
2023/12/05 06:29:47;;;;;;;110.57;44.87;;;;;;;-144.73;100.00;54699.16;4990454;28;20033;-74
2023/12/05 06:32:13;;;;;;;100.40;43.80;;;;;;;-144.73;100.00;54682.75;4993219;28;20068;-74
2023/12/05 06:34:38;;;;;;;103.50;46.53;;;;;;;-144.73;100.00;54682.75;4993328;28;20113;-74
2023/12/05 06:37:04;;;;;;;101.93;44.13;;;;;;;-144.73;100.00;54670.44;4986385;28;20661;-74
2023/12/05 06:39:29;;;;;;;111.03;45.23;;;;;;;-144.73;100.00;54690.97;4976557;28;20082;-79
2023/12/05 06:41:54;;;;;;;102.80;44.33;;;;;;;-144.73;100.00;54649.91;4980454;28;20038;-75
2023/12/05 06:44:20;;;;;;;106.90;46.47;;;;;;;-144.73;100.00;54654.00;4986084;28;20057;-75
2023/12/05 06:46:45;;;;;;;110.70;46.87;;;;;;;-144.73;100.00;54654.00;4985065;28;20035;-75
2023/12/05 06:49:11;;;;;;;106.07;44.03;;;;;;;-144.73;100.00;54723.81;4984510;28;20053;-75
2023/12/05 06:51:36;;;;;;;101.83;41.97;;;;;;;-144.73;100.00;54709.44;4980011;28;20034;-75
2023/12/05 06:54:03;;;;;;;105.97;43.93;;;;;;;-144.73;100.00;54699.16;4978696;28;20113;-75
2023/12/05 06:56:30;;;;;;;111.80;46.70;;;;;;;-144.73;100.00;54670.44;4980809;28;20070;-75
2023/12/05 06:58:56;;;;;;;108.90;43.40;;;;;;;-144.73;100.00;54686.84;4981101;28;20034;-75
2023/12/05 07:01:22;;;;;;;111.77;43.13;;;;;;;-144.73;100.00;54674.53;4985167;28;20046;-75
2023/12/05 07:03:47;;;;;;;99.93;43.87;;;;;;;-144.73;100.00;54719.69;4978188;28;20046;-75
2023/12/05 07:06:12;;;;;;;103.40;43.70;;;;;;;-144.73;100.00;54678.63;4982508;28;20486;-77
2023/12/05 07:08:38;;;;;;;93.50;43.87;;;;;;;-144.73;100.00;54695.06;4978236;28;20054;-76
2023/12/05 07:11:03;;;;;;;102.10;47.13;;;;;;;-144.73;100.00;54678.63;4980793;28;20062;-77
2023/12/05 07:13:29;;;;;;;101.63;44.93;;;;;;;-144.73;100.00;54670.44;4981071;28;20054;-77
2023/12/05 07:15:56;;;;;;;106.53;45.50;;;;;;;-144.73;100.00;54697.13;4984255;28;20401;-76
2023/12/05 07:18:24;;;;;;;103.73;46.23;;;;;;;-144.73;100.00;54649.91;4979847;28;20039;-77
2023/12/05 07:20:50;;;;;;;93.77;39.63;;;;;;;-144.73;100.00;54711.47;4977478;28;20038;-77
2023/12/05 07:23:16;;;;;;;105.73;50.87;;;;;;;-144.73;100.00;54678.63;4980141;28;20093;-76
2023/12/05 07:25:44;;;;;;;97.17;44.23;;;;;;;-144.73;100.00;54674.53;4982689;28;20056;-77
2023/12/05 07:28:09;;;;;;;106.27;48.23;;;;;;;-144.73;100.00;54674.53;4979916;28;20038;-76
2023/12/05 07:30:35;;;;;;;107.63;47.00;;;;;;;-144.73;100.00;54732.00;4980419;28;20035;-75
2023/12/05 07:33:01;;;;;;;100.77;41.93;;;;;;;-144.73;100.00;54674.53;4978931;28;20088;-75
2023/12/05 07:35:29;;;;;;;95.83;40.27;;;;;;;-144.73;100.00;54699.16;4983587;28;20484;-73
2023/12/05 07:37:54;;;;;;;104.20;45.93;;;;;;;-144.73;100.00;54723.81;4986586;28;20044;-74
2023/12/05 07:40:20;;;;;;;103.63;47.80;;;;;;;-144.73;100.00;54645.78;4974064;28;20042;-74
2023/12/05 07:42:45;;;;;;;112.77;45.83;;;;;;;-144.73;100.00;54695.06;4990494;28;20038;-74
2023/12/05 07:45:11;;;;;;;91.67;40.40;;;;;;;-144.73;100.00;54738.16;4986288;28;20068;-75
2023/12/05 07:47:36;;;;;;;107.27;45.40;;;;;;;-144.73;100.00;54723.81;4971865;28;20038;-74
2023/12/05 07:50:02;;;;;;;98.93;45.30;;;;;;;-144.73;100.00;54690.97;4975164;28;20035;-75
2023/12/05 07:52:28;;;;;;;91.83;42.03;;;;;;;-144.73;100.00;54707.38;4977365;28;20073;-75
2023/12/05 07:54:53;;;;;;;100.07;44.97;;;;;;;-144.73;100.00;54654.00;4978226;28;20015;-75
2023/12/05 07:57:22;;;;;;;98.27;43.97;;;;;;;-144.73;100.00;54670.44;4981694;28;20050;-75
2023/12/05 07:59:48;;;;;;;98.60;43.07;;;;;;;-144.73;100.00;54670.44;4976665;28;20034;-76
2023/12/05 08:02:17;;;;;;;106.67;45.23;;;;;;;-144.73;100.00;54649.91;4980239;28;20133;-74
2023/12/05 08:04:48;;;;;;;94.27;43.00;;;;;;;-144.73;100.00;54697.13;4979978;28;20019;-71
2023/12/05 08:07:13;;;;;;;108.68;45.95;;;;;;;-144.73;100.00;54711.47;4977990;28;20057;-71
2023/12/05 08:09:39;;;;;;;101.80;43.90;;;;;;;-144.73;100.00;54674.53;4978497;28;20023;-71
2023/12/05 08:12:05;;;;;;;101.07;47.40;;;;;;;-144.73;100.00;54682.75;4975566;28;20077;-71
2023/12/05 08:14:30;;;;;;;93.30;42.53;;;;;;;-144.73;100.00;54697.13;4980242;28;20033;-70
2023/12/05 08:16:55;;;;;;;104.40;45.60;;;;;;;-144.73;100.00;54670.44;4986058;28;20038;-71
2023/12/05 08:19:21;;;;;;;108.23;47.90;;;;;;;-144.73;100.00;54674.53;4984324;28;20044;-71
2023/12/05 08:21:46;;;;;;;108.87;46.43;;;;;;;-144.73;100.00;54656.06;4988662;28;20038;-71
2023/12/05 08:24:12;;;;;;;119.17;45.83;;;;;;;-144.73;100.00;54699.16;4972425;28;20033;-70
2023/12/05 08:26:37;;;;;;;102.80;46.43;;;;;;;-144.73;100.00;54654.00;4976378;28;20031;-71
2023/12/05 08:29:02;;;;;;;107.63;47.93;;;;;;;-144.73;100.00;54645.78;4980687;28;20030;-70
2023/12/05 08:31:28;;;;;;;102.37;49.43;;;;;;;-144.73;100.00;54674.53;4978635;28;20055;-69
2023/12/05 08:33:53;;;;;;;104.63;46.00;;;;;;;-144.73;100.00;54658.13;4980188;28;20023;-70
2023/12/05 08:36:19;;;;;;;96.37;42.73;;;;;;;-144.73;100.00;54703.28;4975473;28;20046;-70
2023/12/05 08:38:44;;;;;;;106.50;46.77;;;;;;;-144.73;100.00;54682.75;4978270;28;20052;-70
2023/12/05 08:41:16;;;;;;;92.20;41.73;;;;;;;-144.73;100.00;54654.00;4975188;28;20039;-74
2023/12/05 08:43:42;;;;;;;98.63;45.27;;;;;;;-144.73;100.00;54645.78;4974614;28;20030;-71
2023/12/05 08:46:07;;;;;;;96.87;41.43;;;;;;;-144.73;100.00;54670.44;4969980;28;20043;-71
2023/12/05 08:48:33;;;;;;;88.83;43.77;;;;;;;-144.73;100.00;54670.44;4979538;28;20022;-70
2023/12/05 08:50:58;;;;;;;91.37;44.57;;;;;;;-144.73;100.00;54715.59;4985113;28;20041;-70
2023/12/05 08:53:23;;;;;;;94.37;44.50;;;;;;;-144.73;100.00;54703.28;4978389;28;20069;-69
2023/12/05 08:55:49;;;;;;;87.33;41.43;;;;;;;-144.73;100.00;54703.28;4974934;28;20100;-70
2023/12/05 08:58:14;;;;;;;89.70;43.30;;;;;;;-144.73;100.00;54705.31;4979985;28;20061;-69
2023/12/05 09:00:40;;;;;;;99.00;43.43;;;;;;;-144.73;100.00;54748.44;4980908;28;20062;-71
2023/12/05 09:03:05;;;;;;;111.87;51.23;;;;;;;-144.73;100.00;54703.28;4986619;28;20026;-70
2023/12/05 09:05:31;;;;;;;99.10;45.67;;;;;;;-144.73;100.00;54682.75;4984082;28;20104;-70
2023/12/05 09:07:56;;;;;;;98.47;46.90;;;;;;;-144.73;100.00;54713.53;4983146;28;20030;-71
2023/12/05 09:10:22;;;;;;;118.90;47.97;;;;;;;-144.73;100.00;54682.75;4981984;28;20038;-70
2023/12/05 09:12:47;;;;;;;97.13;48.60;;;;;;;-144.73;100.00;54670.44;4978464;28;20043;-70
2023/12/05 09:15:13;;;;;;;98.57;46.37;;;;;;;-144.73;100.00;54654.00;4982370;28;20500;-70
2023/12/05 09:17:38;;;;;;;99.07;44.80;;;;;;;-144.73;100.00;54699.16;4979709;28;20031;-71
2023/12/05 09:20:04;;;;;;;115.10;48.47;;;;;;;-144.73;100.00;54713.53;4984467;28;20061;-70
2023/12/05 09:22:29;;;;;;;107.30;49.53;;;;;;;-144.73;100.00;54672.47;4985893;28;20031;-70
2023/12/05 09:24:55;;;;;;;114.07;52.40;;;;;;;-144.73;100.00;54686.84;4984168;28;20020;-70
2023/12/05 09:27:20;;;;;;;107.67;49.30;;;;;;;-144.73;100.00;54678.63;4981415;28;20058;-71
2023/12/05 09:29:46;;;;;;;105.17;47.77;;;;;;;-144.73;100.00;54707.38;4977928;28;20042;-70
2023/12/05 09:32:11;;;;;;;104.17;49.60;;;;;;;-144.73;100.00;54682.75;4973692;28;20089;-70
2023/12/05 09:34:37;;;;;;;93.80;45.27;;;;;;;-144.73;100.00;54686.84;4983086;28;20022;-71
2023/12/05 09:37:02;;;;;;;100.60;46.33;;;;;;;-144.73;100.00;54711.47;4976171;28;20443;-70
2023/12/05 09:39:29;;;;;;;104.13;49.47;;;;;;;-144.73;100.00;54670.44;4974998;28;20768;-70
2023/12/05 09:41:57;;;;;;;103.87;45.60;;;;;;;-144.73;100.00;54654.00;4970578;28;20031;-71
2023/12/05 09:44:25;;;;;;;93.77;45.47;;;;;;;-144.73;100.00;54686.84;4977307;28;20194;-71
2023/12/05 09:46:52;;;;;;;102.00;49.87;;;;;;;-144.73;100.00;54715.59;4975168;28;20058;-70
2023/12/05 09:49:18;;;;;;;97.20;44.23;;;;;;;-144.73;100.00;54641.69;4975170;28;20026;-70
2023/12/05 09:51:45;;;;;;;103.00;47.20;;;;;;;-144.73;100.00;54649.91;4986274;28;20042;-70
2023/12/05 09:54:11;;;;;;;105.03;44.17;;;;;;;-144.73;100.00;54715.59;4978946;28;20034;-71
2023/12/05 09:56:37;;;;;;;118.87;52.57;;;;;;;-144.73;100.00;54690.97;4980423;28;20051;-70
2023/12/05 09:59:02;;;;;;;107.17;49.40;;;;;;;-144.73;100.00;54707.38;4970467;28;20026;-70
2023/12/05 10:01:31;;;;;;;103.13;48.37;;;;;;;-144.73;100.00;54660.16;4977718;28;20490;-70
2023/12/05 10:03:58;;;;;;;104.13;49.07;;;;;;;-144.73;100.00;54670.44;4977924;28;20053;-70
2023/12/05 10:06:29;;;;;;;102.80;43.00;;;;;;;-144.73;100.00;54670.44;4971808;28;20119;-70
2023/12/05 10:08:56;;;;;;;102.63;48.27;;;;;;;-144.73;100.00;54686.84;4980644;28;20477;-70
2023/12/05 10:11:24;;;;;;;108.87;47.67;;;;;;;-144.73;100.00;54723.81;4975676;28;20054;-70
2023/12/05 10:13:50;;;;;;;105.73;48.13;;;;;;;-144.73;100.00;54703.28;4971760;28;20065;-70
2023/12/05 10:16:16;;;;;;;98.10;45.77;;;;;;;-144.73;100.00;54682.75;4981067;28;20042;-72
2023/12/05 10:18:44;;;;;;;105.72;48.03;;;;;;;-144.73;100.00;54695.06;4979042;28;20054;-70
2023/12/05 10:21:10;;;;;;;97.73;45.27;;;;;;;-144.73;100.00;54715.59;4970310;28;20042;-70
2023/12/05 10:23:35;;;;;;;99.20;46.30;;;;;;;-144.73;100.00;54707.38;4977786;28;20042;-72
2023/12/05 10:26:00;;;;;;;96.03;46.90;;;;;;;-144.73;100.00;54707.38;4975888;28;20046;-70
2023/12/05 10:28:26;;;;;;;98.00;48.20;;;;;;;-144.73;100.00;54658.13;4979862;28;20037;-71
2023/12/05 10:30:51;;;;;;;98.53;45.10;;;;;;;-144.73;100.00;54695.06;4981644;28;20057;-70
2023/12/05 10:33:19;;;;;;;97.63;45.23;;;;;;;-144.73;100.00;54699.16;4976688;28;20038;-70
2023/12/05 10:35:45;;;;;;;96.65;48.13;;;;;;;-144.73;100.00;54690.97;4978473;28;20058;-70
2023/12/05 10:38:13;;;;;;;92.57;44.60;;;;;;;-144.73;100.00;54719.69;4976125;28;20381;-70
2023/12/05 10:40:54;;;;;;;90.53;43.53;;;;;;;-144.73;100.00;54721.75;4977199;28;20061;-70
2023/12/05 10:43:21;;;;;;;96.32;43.28;;;;;;;-144.73;100.00;54695.06;4982633;28;20030;-70
2023/12/05 10:45:48;;;;;;;109.03;46.90;;;;;;;-144.73;100.00;54705.31;4977395;28;20038;-71
2023/12/05 10:48:14;;;;;;;93.60;42.75;;;;;;;-144.73;100.00;54690.97;4976868;28;20029;-71